createdAt,value
2022-08-17T00:02:27.267Z,91938.00
2022-08-17T00:05:34.487Z,91938.78
2022-08-17T00:08:43.133Z,91922.50
2022-08-17T00:12:41.040Z,91923.13
2022-08-17T00:15:12.027Z,91913.50
2022-08-17T00:19:01.156Z,91913.09
2022-08-17T00:22:29.628Z,91920.94
2022-08-17T00:25:07.775Z,91918.31
2022-08-17T00:28:11.181Z,91906.53
2022-08-17T00:31:15.195Z,91915.88
2022-08-17T00:34:18.639Z,91905.78
2022-08-17T00:37:21.625Z,91921.56
2022-08-17T00:40:24.903Z,91921.34
2022-08-17T00:43:34.038Z,91924.84
2022-08-17T00:46:41.539Z,91919.91
2022-08-17T00:49:44.530Z,91902.75
2022-08-17T00:52:58.237Z,91911.75
2022-08-17T00:56:05.347Z,91905.22
2022-08-17T00:59:10.979Z,91903.19
2022-08-17T01:02:16.379Z,91901.41
2022-08-17T01:05:25.401Z,91901.41
2022-08-17T01:08:31.668Z,91900.28
2022-08-17T01:11:36.822Z,91893.06
2022-08-17T01:14:40.540Z,91886.47
2022-08-17T01:17:45.887Z,91880.75
2022-08-17T01:20:52.617Z,91875.94
2022-08-17T01:23:56.334Z,91878.59
2022-08-17T01:27:01.679Z,91887.97
2022-08-17T01:30:57.027Z,91891.50
2022-08-17T01:33:33.698Z,91892.09
2022-08-17T01:36:39.498Z,91885.88
2022-08-17T01:39:51.012Z,91890.28
2022-08-17T01:42:58.435Z,91898.91
2022-08-17T01:46:04.164Z,91882.81
2022-08-17T01:49:09.811Z,91875.94
2022-08-17T01:52:13.420Z,91875.06
2022-08-17T01:55:25.845Z,91879.44
2022-08-17T01:58:30.634Z,91876.38
2022-08-17T02:01:35.240Z,91868.50
2022-08-17T02:04:38.270Z,91868.88
2022-08-17T02:07:59.581Z,91867.88
2022-08-17T02:11:15.193Z,91871.53
2022-08-17T02:14:18.645Z,91867.47
2022-08-17T02:17:21.698Z,91863.53
2022-08-17T02:20:41.631Z,91870.97
2022-08-17T02:23:48.968Z,91881.31
2022-08-17T02:26:51.997Z,91877.00
2022-08-17T02:29:55.195Z,91883.81
2022-08-17T02:32:58.235Z,91883.47
2022-08-17T02:36:01.338Z,91882.06
2022-08-17T02:39:09.899Z,91888.28
2022-08-17T02:42:14.550Z,91882.91
2022-08-17T02:45:20.503Z,91891.13
2022-08-17T02:48:28.026Z,91897.88
2022-08-17T02:51:35.810Z,91907.41
2022-08-17T02:54:39.814Z,91903.00
2022-08-17T02:57:45.953Z,91899.13
2022-08-17T03:00:49.229Z,91889.47
2022-08-17T03:03:52.385Z,91884.72
2022-08-17T03:06:55.332Z,91893.69
2022-08-17T03:09:59.908Z,91886.69
2022-08-17T03:13:02.953Z,91895.41
2022-08-17T03:16:06.298Z,91889.97
2022-08-17T03:19:09.471Z,91887.94
2022-08-17T03:22:36.111Z,91884.34
2022-08-17T03:25:39.642Z,91889.44
2022-08-17T03:28:42.807Z,91895.84
2022-08-17T03:31:49.715Z,91888.78
2022-08-17T03:34:52.795Z,91894.84
2022-08-17T03:38:00.471Z,91900.56
2022-08-17T03:41:06.760Z,91899.38
2022-08-17T03:44:09.832Z,91892.78
2022-08-17T03:47:31.296Z,91887.34
2022-08-17T03:50:53.005Z,91886.63
2022-08-17T03:54:17.685Z,91876.81
2022-08-17T03:57:20.935Z,91883.97
2022-08-17T04:00:24.016Z,91886.84
2022-08-17T04:03:27.078Z,91880.78
2022-08-17T04:06:30.993Z,91872.66
2022-08-17T04:09:34.257Z,91878.69
2022-08-17T04:12:49.953Z,91880.44
2022-08-17T04:15:53.431Z,91865.19
2022-08-17T04:18:56.638Z,91874.31
2022-08-17T04:21:59.648Z,91871.03
2022-08-17T04:25:14.461Z,91877.28
2022-08-17T04:28:18.177Z,91867.97
2022-08-17T04:31:21.390Z,91874.00
2022-08-17T04:34:25.097Z,91863.94
2022-08-17T04:37:28.190Z,91863.44
2022-08-17T04:40:49.547Z,91870.81
2022-08-17T04:43:56.600Z,91858.38
2022-08-17T04:46:59.596Z,91858.56
2022-08-17T04:50:03.211Z,91860.13
2022-08-17T04:53:06.305Z,91866.75
2022-08-17T04:56:11.897Z,91864.06
2022-08-17T04:59:22.151Z,91864.53
2022-08-17T05:02:25.172Z,91856.66
2022-08-17T05:05:36.918Z,91855.34
2022-08-17T05:08:40.651Z,91850.81
2022-08-17T05:11:44.991Z,91849.97
2022-08-17T05:14:47.887Z,91851.72
2022-08-17T05:17:50.977Z,91850.63
2022-08-17T05:20:54.200Z,91838.78
2022-08-17T05:23:59.528Z,91830.75
2022-08-17T05:27:06.212Z,91835.66
2022-08-17T05:30:10.104Z,91832.22
2022-08-17T05:33:17.245Z,91823.91
2022-08-17T05:36:43.230Z,91824.63
2022-08-17T05:39:43.326Z,91825.91
2022-08-17T05:42:46.473Z,91830.47
2022-08-17T05:45:55.202Z,91823.34
2022-08-17T05:49:09.609Z,91810.88
2022-08-17T05:52:18.859Z,91820.44
2022-08-17T05:55:44.101Z,91819.97
2022-08-17T05:59:38.686Z,91815.84
2022-08-17T06:02:55.213Z,91805.44
2022-08-17T06:06:18.754Z,91807.34
2022-08-17T06:09:36.555Z,91805.16
2022-08-17T06:13:05.607Z,91799.53
2022-08-17T06:16:34.405Z,91783.50
2022-08-17T06:19:43.168Z,91780.25
2022-08-17T06:22:52.867Z,91788.34
2022-08-17T06:26:04.358Z,91787.41
2022-08-17T06:29:40.352Z,91783.97
2022-08-17T06:32:45.927Z,91781.63
2022-08-17T06:36:07.997Z,91788.09
2022-08-17T06:39:37.634Z,91791.56
2022-08-17T06:43:05.984Z,91788.09
2022-08-17T06:46:19.951Z,91778.19
2022-08-17T06:49:39.298Z,91780.38
2022-08-17T06:53:04.959Z,91775.16
2022-08-17T06:56:54.473Z,91773.41
2022-08-17T06:59:58.509Z,91766.16
2022-08-17T07:03:25.543Z,91779.88
2022-08-17T07:06:37.766Z,91773.00
2022-08-17T07:09:41.483Z,91766.22
2022-08-17T07:12:46.570Z,91762.28
2022-08-17T07:15:56.426Z,91760.53
2022-08-17T07:19:00.567Z,91752.28
2022-08-17T07:22:15.645Z,91763.09
2022-08-17T07:25:20.864Z,91751.13
2022-08-17T07:28:24.462Z,91763.44
2022-08-17T07:31:31.218Z,91776.38
2022-08-17T07:35:01.970Z,91757.19
2022-08-17T07:38:25.185Z,91758.28
2022-08-17T07:41:57.810Z,91758.88
2022-08-17T07:44:58.577Z,91764.56
2022-08-17T07:48:19.975Z,91754.44
2022-08-17T07:51:31.852Z,91753.50
2022-08-17T07:54:43.285Z,91756.97
2022-08-17T07:57:58.013Z,91756.69
2022-08-17T08:01:09.549Z,91757.81
2022-08-17T08:08:20.830Z,91758.34
2022-08-17T08:11:38.264Z,91747.66
2022-08-17T08:14:56.785Z,91748.75
2022-08-17T08:18:03.647Z,91749.84
2022-08-17T08:21:17.955Z,91751.06
2022-08-17T08:24:37.627Z,91747.59
2022-08-17T08:28:12.488Z,91749.66
2022-08-17T08:31:26.997Z,91744.91
2022-08-17T08:35:00.800Z,91760.50
2022-08-17T08:38:46.710Z,91751.59
2022-08-17T08:42:13.781Z,91759.00
2022-08-17T08:45:32.051Z,91762.78
2022-08-17T08:48:58.017Z,91767.50
2022-08-17T08:52:05.758Z,91763.72
2022-08-17T08:55:36.273Z,91757.72
2022-08-17T08:59:08.771Z,91764.81
2022-08-17T09:02:26.754Z,91759.63
2022-08-17T09:05:43.531Z,91764.03
2022-08-17T09:09:17.174Z,91759.13
2022-08-17T09:12:30.622Z,91758.50
2022-08-17T09:15:47.036Z,91761.97
2022-08-17T09:19:03.437Z,91771.09
2022-08-17T09:22:24.781Z,91765.28
2022-08-17T09:25:32.256Z,91769.66
2022-08-17T09:28:38.602Z,91765.25
2022-08-17T09:31:58.593Z,91776.13
2022-08-17T09:35:11.051Z,91772.19
2022-08-17T09:38:20.116Z,91775.00
2022-08-17T09:41:32.127Z,91785.19
2022-08-17T09:45:04.662Z,91772.13
2022-08-17T09:48:23.864Z,91784.44
2022-08-17T09:51:40.761Z,91784.41
2022-08-17T09:54:45.448Z,91779.22
2022-08-17T09:58:14.449Z,91784.25
2022-08-17T10:01:48.456Z,91785.22
2022-08-17T10:04:51.593Z,91785.19
2022-08-17T10:08:30.625Z,91782.38
2022-08-17T10:11:54.912Z,91789.56
2022-08-17T10:15:41.722Z,91779.53
2022-08-17T10:18:48.722Z,91788.75
2022-08-17T10:22:35.091Z,91777.09
2022-08-17T10:26:02.916Z,91788.84
2022-08-17T10:29:13.280Z,91792.06
2022-08-17T10:32:32.821Z,91785.19
2022-08-17T10:35:39.003Z,91788.91
2022-08-17T10:39:00.412Z,91793.13
2022-08-17T10:42:30.751Z,91798.13
2022-08-17T10:46:29.927Z,91805.91
2022-08-17T10:49:58.778Z,91811.03
2022-08-17T10:53:02.603Z,91810.47
2022-08-17T10:56:14.707Z,91812.81
2022-08-17T10:59:35.800Z,91812.56
2022-08-17T11:02:50.228Z,91819.13
2022-08-17T11:06:05.018Z,91824.38
2022-08-17T11:09:10.753Z,91821.13
2022-08-17T11:12:38.615Z,91826.22
2022-08-17T11:16:29.094Z,91827.53
2022-08-17T11:19:44.291Z,91831.19
2022-08-17T11:23:18.975Z,91837.19
2022-08-17T11:26:26.560Z,91843.78
2022-08-17T11:29:39.397Z,91847.38
2022-08-17T11:32:54.576Z,91846.78
2022-08-17T11:36:04.863Z,91856.16
2022-08-17T11:39:43.559Z,91856.84
2022-08-17T11:42:52.350Z,91872.78
2022-08-17T11:45:55.540Z,91872.78
2022-08-17T11:49:35.077Z,91871.28
2022-08-17T11:52:47.499Z,91878.75
2022-08-17T11:55:53.481Z,91884.03
2022-08-17T11:58:57.036Z,91889.22
2022-08-17T12:02:02.457Z,91893.13
2022-08-17T12:05:23.950Z,91894.34
2022-08-17T12:08:33.196Z,91895.06
2022-08-17T12:12:13.133Z,91893.53
2022-08-17T12:15:22.331Z,91905.25
2022-08-17T12:18:32.896Z,91899.91
2022-08-17T12:21:49.415Z,91908.97
2022-08-17T12:25:15.733Z,91916.03
2022-08-17T12:28:46.554Z,91918.63
2022-08-17T12:31:52.988Z,91928.66
2022-08-17T12:34:56.572Z,91926.16
2022-08-17T12:38:00.592Z,91932.53
2022-08-17T12:41:30.581Z,91931.38
2022-08-17T12:44:36.885Z,91931.88
2022-08-17T12:48:25.532Z,91928.63
2022-08-17T12:51:29.622Z,91944.75
2022-08-17T12:54:46.161Z,91945.09
2022-08-17T12:58:00.828Z,91940.22
2022-08-17T13:01:15.845Z,91949.38
2022-08-17T13:04:20.881Z,91953.41
2022-08-17T13:07:29.856Z,91946.94
2022-08-17T13:10:35.927Z,91956.59
2022-08-17T13:13:44.479Z,91952.22
2022-08-17T13:16:54.225Z,91957.56
2022-08-17T13:19:57.891Z,91963.06
2022-08-17T13:23:07.590Z,91954.97
2022-08-17T13:26:17.346Z,91966.59
2022-08-17T13:29:32.216Z,91957.66
2022-08-17T13:32:44.074Z,91954.03
2022-08-17T13:35:50.541Z,91967.75
2022-08-17T13:39:08.545Z,91959.91
2022-08-17T13:42:52.804Z,91964.75
2022-08-17T13:46:09.360Z,91968.31
2022-08-17T13:49:12.817Z,91960.13
2022-08-17T13:52:40.584Z,91966.31
2022-08-17T13:55:59.556Z,91965.41
2022-08-17T13:59:53.596Z,91955.16
2022-08-17T14:02:54.487Z,91963.25
2022-08-17T14:05:58.003Z,91966.34
2022-08-17T14:09:04.413Z,91961.69
2022-08-17T14:12:22.973Z,91965.59
2022-08-17T14:15:56.318Z,91977.56
2022-08-17T14:18:56.051Z,91977.03
2022-08-17T14:22:01.146Z,91980.31
2022-08-17T14:25:08.718Z,91976.50
2022-08-17T14:28:13.881Z,91972.94
2022-08-17T14:31:19.849Z,91985.38
2022-08-17T14:34:25.037Z,91985.75
2022-08-17T14:37:29.633Z,91990.88
2022-08-17T14:40:34.016Z,91993.16
2022-08-17T14:43:38.539Z,91998.00
2022-08-17T14:46:44.247Z,92002.94
2022-08-17T14:49:51.129Z,92006.59
2022-08-17T14:52:57.943Z,92001.63
2022-08-17T14:56:02.238Z,92003.31
2022-08-17T14:59:05.958Z,92008.22
2022-08-17T15:02:09.034Z,92010.47
2022-08-17T15:05:12.390Z,92018.59
2022-08-17T15:08:17.320Z,92017.38
2022-08-17T15:11:20.414Z,92019.75
2022-08-17T15:14:23.970Z,92024.66
2022-08-17T15:17:27.067Z,92033.47
2022-08-17T15:20:50.100Z,92028.44
2022-08-17T15:23:52.839Z,92040.19
2022-08-17T15:26:55.900Z,92037.91
2022-08-17T15:29:59.071Z,92036.88
2022-08-17T15:33:03.306Z,92041.66
2022-08-17T15:36:08.609Z,92047.13
2022-08-17T15:39:11.629Z,92051.84
2022-08-17T15:42:15.345Z,92049.53
2022-08-17T15:45:25.450Z,92049.78
2022-08-17T15:48:42.221Z,92053.44
2022-08-17T15:51:45.607Z,92045.94
2022-08-17T15:54:54.881Z,92052.16
2022-08-17T15:57:58.049Z,92048.66
2022-08-17T16:01:14.889Z,92049.03
2022-08-17T16:04:30.122Z,92049.56
2022-08-17T16:07:34.508Z,92043.47
2022-08-17T16:10:37.813Z,92051.03
2022-08-17T16:13:42.240Z,92053.97
2022-08-17T16:16:59.844Z,92050.19
2022-08-17T16:20:03.611Z,92060.09
2022-08-17T16:23:06.888Z,92056.88
2022-08-17T16:26:09.976Z,92063.16
2022-08-17T16:29:13.084Z,92062.72
2022-08-17T16:32:22.307Z,92057.03
2022-08-17T16:35:35.142Z,92058.16
2022-08-17T16:38:39.271Z,92053.31
2022-08-17T16:41:48.399Z,92057.63
2022-08-17T16:45:17.490Z,92054.56
2022-08-17T16:48:20.553Z,92052.22
2022-08-17T16:51:25.538Z,92051.69
2022-08-17T16:54:28.650Z,92054.47
2022-08-17T16:57:32.131Z,92057.84
2022-08-17T17:00:36.712Z,92046.75
2022-08-17T17:03:44.472Z,92038.22
2022-08-17T17:07:01.861Z,92046.03
2022-08-17T17:10:30.236Z,92039.38
2022-08-17T17:13:44.359Z,92027.28
2022-08-17T17:17:05.763Z,92033.63
2022-08-17T17:20:20.115Z,92036.13
2022-08-17T17:23:41.313Z,92034.72
2022-08-17T17:26:50.573Z,92043.97
2022-08-17T17:30:24.751Z,92041.34
2022-08-17T17:33:43.492Z,92036.63
2022-08-17T17:36:58.782Z,92033.22
2022-08-17T17:40:16.525Z,92043.00
2022-08-17T17:43:40.889Z,92043.28
2022-08-17T17:46:49.535Z,92052.53
2022-08-17T17:49:52.784Z,92044.78
2022-08-17T17:53:10.103Z,92051.38
2022-08-17T17:56:43.159Z,92051.53
2022-08-17T18:00:13.419Z,92043.91
2022-08-17T18:03:45.791Z,92048.03
2022-08-17T18:06:51.664Z,92051.47
2022-08-17T18:10:29.236Z,92061.59
2022-08-17T18:13:52.724Z,92070.53
2022-08-17T18:16:59.961Z,92069.41
2022-08-17T18:20:04.996Z,92078.16
2022-08-17T18:23:08.417Z,92086.88
2022-08-17T18:26:11.494Z,92101.69
2022-08-17T18:29:32.275Z,92095.38
2022-08-17T18:32:47.093Z,92091.19
2022-08-17T18:35:59.256Z,92098.09
2022-08-17T18:39:22.206Z,92093.16
2022-08-17T18:42:28.602Z,92097.50
2022-08-17T18:45:54.212Z,92087.91
2022-08-17T18:49:01.167Z,92095.41
2022-08-17T18:52:37.316Z,92096.41
2022-08-17T18:55:40.393Z,92097.56
2022-08-17T18:58:52.926Z,92109.03
2022-08-17T19:02:07.585Z,92117.75
2022-08-17T19:05:36.714Z,92110.66
2022-08-17T19:08:39.762Z,92109.53
2022-08-17T19:11:42.837Z,92097.84
2022-08-17T19:14:45.909Z,92098.66
2022-08-17T19:18:00.780Z,92105.34
2022-08-17T19:21:27.991Z,92108.88
2022-08-17T19:24:34.253Z,92103.22
2022-08-17T19:27:49.254Z,92102.75
2022-08-17T19:31:00.032Z,92101.53
2022-08-17T19:34:03.401Z,92103.69
2022-08-17T19:37:29.855Z,92100.50
2022-08-17T19:40:56.447Z,92100.69
2022-08-17T19:44:07.248Z,92106.78
2022-08-17T19:47:36.192Z,92119.56
2022-08-17T19:50:55.481Z,92107.25
2022-08-17T19:54:06.973Z,92094.81
2022-08-17T19:57:20.907Z,92085.13
2022-08-17T20:00:24.313Z,92097.66
2022-08-17T20:03:53.389Z,92089.25
2022-08-17T20:07:07.226Z,92086.66
2022-08-17T20:10:21.276Z,92093.97
2022-08-17T20:13:33.187Z,92104.47
2022-08-17T20:16:36.967Z,92116.97
2022-08-17T20:19:54.854Z,92126.19
2022-08-17T20:23:05.642Z,92133.44
2022-08-17T20:26:58.061Z,92142.63
2022-08-17T20:30:35.239Z,92139.41
2022-08-17T20:33:39.217Z,92136.19
2022-08-17T20:37:24.884Z,92140.69
2022-08-17T20:40:31.809Z,92144.66
2022-08-17T20:43:34.856Z,92140.84
2022-08-17T20:46:40.840Z,92141.59
2022-08-17T20:49:45.128Z,92138.34
2022-08-17T20:52:52.647Z,92142.25
2022-08-17T20:55:56.374Z,92142.28
2022-08-17T20:59:01.361Z,92149.53
2022-08-17T21:02:18.621Z,92141.59
2022-08-17T21:05:34.300Z,92131.78
2022-08-17T21:08:59.332Z,92126.41
2022-08-17T21:12:05.489Z,92119.00
2022-08-17T21:15:21.918Z,92105.09
2022-08-17T21:18:32.588Z,92103.09
2022-08-17T21:21:52.755Z,92107.59
2022-08-17T21:25:22.302Z,92125.25
2022-08-17T21:29:30.268Z,92122.59
2022-08-17T21:32:32.641Z,92118.66
2022-08-17T21:36:16.690Z,92119.19
2022-08-17T21:39:33.926Z,92126.94
2022-08-17T21:42:44.849Z,92122.91
2022-08-17T21:46:05.710Z,92121.03
2022-08-17T21:49:13.779Z,92145.06
2022-08-17T21:52:20.644Z,92152.06
2022-08-17T21:55:29.256Z,92154.97
2022-08-17T21:58:36.246Z,92158.66
2022-08-17T22:01:41.662Z,92163.06
2022-08-17T22:05:02.500Z,92165.31
2022-08-17T22:08:18.896Z,92163.63
2022-08-17T22:11:23.188Z,92171.88
2022-08-17T22:14:54.107Z,92172.28
2022-08-17T22:17:59.109Z,92182.91
2022-08-17T22:21:05.217Z,92177.28
2022-08-17T22:24:25.475Z,92177.09
2022-08-17T22:27:52.596Z,92184.75
2022-08-17T22:31:04.920Z,92184.34
2022-08-17T22:34:14.260Z,92189.84
2022-08-17T22:37:29.673Z,92195.91
2022-08-17T22:40:35.023Z,92190.56
2022-08-17T22:43:41.528Z,92187.84
2022-08-17T22:46:56.205Z,92193.78
2022-08-17T22:50:13.527Z,92199.91
2022-08-17T22:53:41.700Z,92199.06
2022-08-17T22:57:20.331Z,92208.06
2022-08-17T23:00:43.383Z,92204.41
2022-08-17T23:04:02.034Z,92200.94
2022-08-17T23:07:06.818Z,92194.03
2022-08-17T23:10:10.956Z,92193.19
2022-08-17T23:13:14.466Z,92192.81
2022-08-17T23:16:17.618Z,92193.66
2022-08-17T23:19:22.694Z,92197.31
2022-08-17T23:22:25.803Z,92194.53
2022-08-17T23:25:31.282Z,92196.31
2022-08-17T23:28:37.997Z,92190.59
2022-08-17T23:31:41.631Z,92199.88
2022-08-17T23:34:45.763Z,92190.31
2022-08-17T23:37:48.743Z,92185.81
2022-08-17T23:40:51.844Z,92183.44
2022-08-17T23:43:55.765Z,92178.66
2022-08-17T23:46:58.838Z,92169.34
2022-08-17T23:50:05.120Z,92174.22
2022-08-17T23:53:08.459Z,92171.31
2022-08-17T23:56:11.885Z,92167.16
2022-08-17T23:59:22.183Z,92158.44
